Offutt Air Force Base Omaha US
ICAO: KOFF
IATA: OFF
Category: Medium
Scheduled Services: No

Elevation: 1052 ft
TransAlt. 18000 ft.

Airport Communications:
OMAHA APP/DEP:118
ATIS:126.025
GND:121.7
PMSV METRO:22.74
COMD POST:31.1
PTD:37.94
TWR:123.7

KOFF Zoom In..

Runways:

(A) RW 12 length 11702 ft width 150 ft
ILS 111.70 / hdg 124

(B) RW 30 length 11702 ft width 150 ft
ILS 109.50 / hdg 304

Location; KOFF
Day. 22 / Time. 00.07 Zulu
* Altimeter: 29.71
* Temperature: 04° c. 39.2°f.
* Wind from: 030° Speed 10 kn.
Dewpoint: 04° c.
Visibility: 3 Statute Miles.
Clouds: Overcast 500 ft.
Conditions: Mist.

KOFF 220007Z 03010KT 3SM R12/6000FT BR OVC005 04/04 A2971 RMK AO2A SLP071 $


Wind From 030°
Speed 10 kn.

jpsM music video
CHECK IT OUT

jpsM - It Moves..

 
jpsmedia.com for Web Design  worldairports.se 2018   terms of use